Time;durP1;ratioP1;P1;durP2;ratioP2;P2;SDS_P1;SDS_P2;PMS_P1;PMS_P2;Temp;Humidity;BMP_temperature;BMP_pressure;BME280_temperature;BME280_humidity;BME280_pressure;Samples;Min_cycle;Max_cycle;Signal;HPM_P1;HPM_P2
2022/11/04 00:02:04;;;;;;;5.68;2.63;;;12.10;96.30;;;;;;5015224;28;20205;-64
2022/11/04 00:04:31;;;;;;;3.55;2.60;;;12.20;97.20;;;;;;5001388;28;20201;-64
2022/11/04 00:06:59;;;;;;;5.25;2.63;;;12.10;97.50;;;;;;5019214;28;20212;-64
2022/11/04 00:09:27;;;;;;;3.78;2.38;;;12.10;98.20;;;;;;5018920;28;20208;-65
2022/11/04 00:14:39;;;;;;;6.65;2.67;;;12.10;99.90;;;;;;5001929;28;21861;-64
2022/11/04 00:17:23;;;;;;;7.18;2.75;;;12.10;99.90;;;;;;5028156;28;20201;-64
2022/11/04 00:33:48;;;;;;;3.25;2.42;;;12.10;99.90;;;;;;5023336;28;20194;-64
2022/11/04 00:36:15;;;;;;;6.45;2.55;;;12.20;99.90;;;;;;5004013;28;20229;-65
2022/11/04 00:38:44;;;;;;;4.13;2.30;;;12.10;99.90;;;;;;5015568;28;20222;-64
2022/11/04 00:44:05;;;;;;;2.72;2.22;;;12.10;99.90;;;;;;5091290;27;20671;-63
2022/11/04 00:46:33;;;;;;;3.60;2.35;;;12.10;99.90;;;;;;5049968;28;20676;-63
2022/11/04 00:49:01;;;;;;;6.57;2.67;;;12.10;99.90;;;;;;5080843;28;20218;-63
2022/11/04 00:51:28;;;;;;;3.70;2.58;;;12.10;99.90;;;;;;5059590;28;20221;-63
2022/11/04 00:53:56;;;;;;;5.22;2.70;;;12.10;99.90;;;;;;5070470;28;20223;-63
2022/11/04 00:56:23;;;;;;;5.72;2.72;;;12.20;99.90;;;;;;5076989;28;20276;-63
2022/11/04 00:58:50;;;;;;;3.65;2.60;;;12.20;99.90;;;;;;5055946;28;20709;-63
2022/11/04 01:01:19;;;;;;;5.43;3.00;;;12.20;99.90;;;;;;5056554;28;20222;-63
2022/11/04 01:03:47;;;;;;;4.55;2.67;;;12.20;99.90;;;;;;5063084;28;21098;-63
2022/11/04 01:06:14;;;;;;;4.72;3.17;;;12.20;99.90;;;;;;5048905;28;21758;-63
2022/11/04 01:08:41;;;;;;;4.55;2.70;;;12.20;99.90;;;;;;5056655;28;21009;-64
2022/11/04 01:11:09;;;;;;;4.75;2.97;;;12.20;99.90;;;;;;5075660;28;20215;-64
2022/11/04 01:13:37;;;;;;;3.88;2.58;;;12.30;99.90;;;;;;5065253;28;21085;-64
2022/11/04 01:16:06;;;;;;;3.75;2.90;;;12.20;99.90;;;;;;5066722;28;20207;-63
2022/11/04 01:18:35;;;;;;;4.28;2.78;;;12.30;99.90;;;;;;5058796;28;20208;-63
2022/11/04 01:21:03;;;;;;;4.88;3.10;;;12.30;99.90;;;;;;5080484;28;20204;-63
2022/11/04 01:23:29;;;;;;;4.38;2.65;;;12.30;99.90;;;;;;5050569;28;20240;-63
2022/11/04 01:25:56;;;;;;;3.30;2.90;;;12.30;99.90;;;;;;5080763;28;20231;-63
2022/11/04 01:28:23;;;;;;;5.18;3.30;;;12.30;99.90;;;;;;5066544;28;20220;-63
2022/11/04 01:30:50;;;;;;;4.63;2.63;;;12.30;99.90;;;;;;5075913;28;20219;-66
2022/11/04 01:33:17;;;;;;;4.43;2.67;;;12.20;99.90;;;;;;5044499;27;20226;-63
2022/11/04 01:35:45;;;;;;;3.85;3.20;;;12.20;99.90;;;;;;5077431;28;20216;-63
2022/11/04 01:38:12;;;;;;;5.88;2.90;;;12.20;99.90;;;;;;5045177;28;20220;-64
2022/11/04 01:40:40;;;;;;;3.90;2.95;;;12.20;99.90;;;;;;5069105;28;22691;-63
2022/11/04 01:43:14;;;;;;;3.63;3.00;;;12.20;99.90;;;;;;5074765;28;20242;-63
2022/11/04 01:45:42;;;;;;;6.25;3.63;;;12.20;99.90;;;;;;5067625;28;20234;-64
2022/11/04 01:48:17;;;;;;;4.47;3.10;;;12.20;99.90;;;;;;5055491;28;20220;-64
2022/11/04 01:50:46;;;;;;;4.35;3.33;;;12.20;99.90;;;;;;5059987;28;20245;-63
2022/11/04 01:53:18;;;;;;;6.65;3.72;;;12.20;99.90;;;;;;5060141;28;20214;-63
2022/11/04 01:55:49;;;;;;;5.60;3.78;;;12.20;99.90;;;;;;5047985;28;22230;-63
2022/11/04 01:58:19;;;;;;;5.53;3.95;;;12.20;99.90;;;;;;5058144;28;20234;-63
2022/11/04 02:00:46;;;;;;;5.38;3.83;;;12.20;99.90;;;;;;5048680;28;20359;-63
2022/11/04 02:03:18;;;;;;;7.95;3.70;;;12.20;99.90;;;;;;5041482;28;20219;-63
2022/11/04 02:05:47;;;;;;;4.80;3.70;;;12.20;99.90;;;;;;5045077;28;20224;-64
2022/11/04 02:08:16;;;;;;;5.88;3.63;;;12.20;99.90;;;;;;5062683;28;20216;-63
2022/11/04 02:10:49;;;;;;;7.45;4.15;;;12.20;99.90;;;;;;5020309;28;21096;-64
2022/11/04 02:13:15;;;;;;;4.40;3.80;;;12.20;99.90;;;;;;5071522;28;20231;-64
2022/11/04 02:15:51;;;;;;;5.50;3.78;;;12.30;99.90;;;;;;5049868;28;20701;-63
2022/11/04 02:18:35;;;;;;;4.70;3.70;;;12.30;99.90;;;;;;5046262;28;20779;-63
2022/11/04 02:21:30;;;;;;;5.80;3.92;;;12.10;99.90;;;;;;5050292;28;20215;-64
2022/11/04 02:24:25;;;;;;;5.35;4.00;;;12.20;99.90;;;;;;5041474;28;20340;-63
2022/11/04 02:27:24;;;;;;;6.50;4.25;;;12.30;99.90;;;;;;5041074;28;20236;-63
2022/11/04 02:30:08;;;;;;;5.18;3.97;;;12.30;99.90;;;;;;5061696;28;20212;-63
2022/11/04 02:32:42;;;;;;;4.95;4.00;;;12.30;99.90;;;;;;5035130;28;20232;-63
2022/11/04 02:35:17;;;;;;;4.13;3.72;;;12.20;99.90;;;;;;5067649;28;20215;-63
2022/11/04 02:37:54;;;;;;;4.82;3.53;;;12.20;99.90;;;;;;5057800;28;20219;-63
2022/11/04 02:40:29;;;;;;;7.32;3.50;;;12.20;99.90;;;;;;5040910;28;20736;-63
2022/11/04 02:43:00;;;;;;;2.80;2.30;;;12.20;99.90;;;;;;5048607;28;20780;-63
2022/11/04 02:45:36;;;;;;;2.50;1.73;;;12.10;99.90;;;;;;5063063;28;20224;-63
2022/11/04 02:48:08;;;;;;;2.25;1.88;;;12.10;99.90;;;;;;5065151;28;20218;-63
2022/11/04 02:50:40;;;;;;;2.60;2.00;;;11.90;99.90;;;;;;5042294;28;20249;-63
2022/11/04 02:53:14;;;;;;;2.88;2.08;;;12.00;99.90;;;;;;5062078;28;20212;-64
2022/11/04 02:55:45;;;;;;;1.90;1.70;;;12.00;99.90;;;;;;5034278;28;20228;-64
2022/11/04 02:58:16;;;;;;;2.50;1.70;;;12.00;99.90;;;;;;5038717;28;20228;-63
2022/11/04 03:00:46;;;;;;;3.83;1.63;;;11.90;99.90;;;;;;5048667;28;20224;-63
2022/11/04 03:03:17;;;;;;;3.50;1.50;;;11.90;99.90;;;;;;5052372;28;20216;-63
2022/11/04 03:05:47;;;;;;;1.77;0.95;;;11.90;99.90;;;;;;5041966;28;20221;-63
2022/11/04 03:08:19;;;;;;;2.42;1.10;;;11.90;99.90;;;;;;5061504;28;20235;-62
2022/11/04 03:10:52;;;;;;;1.45;1.20;;;11.80;99.90;;;;;;5059229;28;20222;-63
2022/11/04 03:13:23;;;;;;;5.53;0.90;;;11.80;99.90;;;;;;5044429;28;20228;-63
2022/11/04 03:15:55;;;;;;;0.77;0.77;;;11.70;99.90;;;;;;5042212;28;20228;-63
2022/11/04 03:18:31;;;;;;;1.45;0.85;;;11.70;99.90;;;;;;5049442;28;20216;-63
2022/11/04 03:21:02;;;;;;;2.97;1.10;;;11.70;99.90;;;;;;5044239;28;20231;-63
2022/11/04 03:23:29;;;;;;;1.30;0.90;;;11.70;99.90;;;;;;5055922;28;20226;-63
2022/11/04 03:26:05;;;;;;;1.58;1.00;;;11.60;99.90;;;;;;5062301;28;20219;-63
2022/11/04 03:28:42;;;;;;;1.23;0.90;;;11.60;99.90;;;;;;5038020;28;20220;-63
2022/11/04 03:31:19;;;;;;;1.60;1.42;;;11.60;99.90;;;;;;5050808;28;20223;-62
2022/11/04 03:33:49;;;;;;;0.85;0.85;;;11.60;99.90;;;;;;5043919;28;20220;-63
2022/11/04 03:36:16;;;;;;;2.08;1.02;;;11.50;99.90;;;;;;5031404;28;20216;-63
2022/11/04 03:38:44;;;;;;;1.27;0.85;;;11.50;99.90;;;;;;5049986;28;20239;-64
2022/11/04 03:41:17;;;;;;;1.35;0.90;;;11.50;99.90;;;;;;5062931;28;20216;-63
2022/11/04 03:43:44;;;;;;;1.15;1.05;;;11.40;99.90;;;;;;5039882;28;20259;-63
2022/11/04 03:46:12;;;;;;;1.23;0.95;;;11.50;99.90;;;;;;5052099;28;20224;-63
2022/11/04 03:48:40;;;;;;;1.08;0.98;;;11.40;99.90;;;;;;5053187;28;20243;-62
2022/11/04 03:51:09;;;;;;;1.45;1.08;;;11.40;99.90;;;;;;5043132;28;20258;-62
2022/11/04 03:53:36;;;;;;;2.80;1.25;;;11.40;99.90;;;;;;5046445;28;20220;-62
2022/11/04 03:56:40;;;;;;;1.20;1.10;;;11.40;99.90;;;;;;5050137;28;20226;-63
2022/11/04 03:59:24;;;;;;;1.38;1.25;;;11.40;99.90;;;;;;5028027;28;20231;-63
2022/11/04 04:01:56;;;;;;;1.50;1.30;;;11.30;99.90;;;;;;5045811;28;21264;-63
2022/11/04 04:04:29;;;;;;;1.85;1.63;;;11.40;99.90;;;;;;5053418;28;20240;-63
2022/11/04 04:07:01;;;;;;;2.60;1.48;;;11.40;99.90;;;;;;5034466;28;20232;-63
2022/11/04 04:09:40;;;;;;;2.08;1.92;;;11.30;99.90;;;;;;5055491;28;20224;-64
2022/11/04 04:12:13;;;;;;;1.70;1.58;;;11.30;99.90;;;;;;5058934;28;20199;-63
2022/11/04 04:14:44;;;;;;;2.67;1.95;;;11.30;99.90;;;;;;5062712;28;20669;-63
2022/11/04 04:17:18;;;;;;;2.40;1.95;;;11.40;99.90;;;;;;5057374;28;22447;-63
2022/11/04 04:19:50;;;;;;;1.80;1.65;;;11.30;99.90;;;;;;5052746;28;20216;-63
2022/11/04 04:22:20;;;;;;;2.08;1.85;;;11.30;99.90;;;;;;5057432;28;20228;-63
2022/11/04 04:27:35;;;;;;;2.03;1.77;;;11.30;99.90;;;;;;5065712;28;20231;-63
2022/11/04 04:30:05;;;;;;;3.75;2.25;;;11.30;99.90;;;;;;5053922;28;20231;-63
2022/11/04 04:32:37;;;;;;;3.85;1.75;;;11.30;99.90;;;;;;5040851;28;20200;-63
2022/11/04 04:37:52;;;;;;;2.40;2.20;;;11.30;99.90;;;;;;5047222;28;20311;-62
2022/11/04 04:46:07;;;;;;;2.33;2.10;;;11.30;99.90;;;;;;5030608;28;20758;-63
2022/11/04 04:48:36;;;;;;;5.13;2.13;;;11.30;99.90;;;;;;5025079;28;20231;-63
2022/11/04 04:51:03;;;;;;;2.53;2.05;;;11.20;99.90;;;;;;5015999;28;20886;-63
2022/11/04 04:53:30;;;;;;;4.95;2.17;;;11.20;99.90;;;;;;5041298;28;20223;-62
2022/11/04 04:55:56;;;;;;;2.10;1.80;;;11.20;99.90;;;;;;5041765;28;20197;-63
2022/11/04 04:58:23;;;;;;;2.35;2.20;;;11.10;99.90;;;;;;5042945;28;20841;-63
2022/11/04 05:00:50;;;;;;;4.68;1.95;;;11.10;99.90;;;;;;5032808;28;20713;-63
2022/11/04 05:03:17;;;;;;;4.32;1.90;;;11.10;99.90;;;;;;5036912;28;20724;-63
2022/11/04 05:05:45;;;;;;;3.25;1.85;;;11.10;99.90;;;;;;5042807;28;20223;-64
2022/11/04 05:08:12;;;;;;;2.50;1.88;;;11.10;99.90;;;;;;5038802;28;20224;-63
2022/11/04 05:10:38;;;;;;;2.60;2.20;;;11.20;99.90;;;;;;5063055;28;20215;-63
2022/11/04 05:15:49;;;;;;;1.83;1.70;;;11.20;99.90;;;;;;5039701;28;20268;-64
2022/11/04 05:18:16;;;;;;;3.60;2.03;;;11.20;99.90;;;;;;5043615;28;20203;-63
2022/11/04 05:20:45;;;;;;;1.92;1.60;;;11.20;99.90;;;;;;5017134;28;20686;-63
2022/11/04 05:23:13;;;;;;;2.63;1.48;;;11.20;99.90;;;;;;5017302;28;20209;-64
2022/11/04 05:25:41;;;;;;;1.88;1.67;;;11.30;99.90;;;;;;5033804;28;20695;-62
2022/11/04 05:28:09;;;;;;;2.83;1.40;;;11.20;99.90;;;;;;5036923;28;20220;-63
2022/11/04 05:30:36;;;;;;;2.45;1.20;;;11.20;99.90;;;;;;5026362;28;20204;-62
2022/11/04 05:33:03;;;;;;;1.35;1.13;;;11.20;99.90;;;;;;5045162;28;20209;-62
2022/11/04 05:35:30;;;;;;;0.85;0.85;;;11.20;99.90;;;;;;5034736;28;20242;-63
2022/11/04 05:37:58;;;;;;;1.02;0.90;;;11.10;99.90;;;;;;5026382;28;20888;-62
2022/11/04 05:40:25;;;;;;;1.20;1.10;;;11.20;99.90;;;;;;5061342;28;20252;-62
2022/11/04 05:42:52;;;;;;;0.95;0.95;;;11.20;99.90;;;;;;5039001;28;20248;-63
2022/11/04 05:45:18;;;;;;;1.17;1.02;;;11.20;99.90;;;;;;5038226;28;20237;-63
2022/11/04 05:47:45;;;;;;;0.98;0.95;;;11.20;99.90;;;;;;5040118;28;20224;-63
2022/11/04 05:50:12;;;;;;;2.28;1.30;;;11.20;99.90;;;;;;5026435;28;20231;-62
2022/11/04 05:52:39;;;;;;;2.05;1.27;;;11.10;99.90;;;;;;5035959;28;20235;-63
2022/11/04 05:55:08;;;;;;;2.15;1.42;;;11.10;99.90;;;;;;5022170;28;20891;-63
2022/11/04 05:57:37;;;;;;;1.45;1.35;;;11.00;99.90;;;;;;5055396;28;20228;-62
2022/11/04 06:00:04;;;;;;;1.55;1.42;;;11.10;99.90;;;;;;5035264;28;20214;-63
2022/11/04 06:02:31;;;;;;;2.53;1.80;;;11.00;99.90;;;;;;5056972;28;20229;-62
2022/11/04 06:04:58;;;;;;;2.35;1.60;;;11.00;99.90;;;;;;5023026;28;20236;-63
2022/11/04 06:07:25;;;;;;;6.60;1.85;;;11.00;99.90;;;;;;5044396;28;20223;-62
2022/11/04 06:09:52;;;;;;;1.95;1.73;;;11.10;99.90;;;;;;5034999;28;20272;-62
2022/11/04 06:12:20;;;;;;;1.90;1.80;;;11.10;99.90;;;;;;5062163;28;20198;-63
2022/11/04 06:14:46;;;;;;;1.60;1.48;;;11.10;99.90;;;;;;5049182;28;20231;-62
2022/11/04 06:17:15;;;;;;;2.42;1.65;;;11.10;99.90;;;;;;5050355;28;20743;-62
2022/11/04 06:19:42;;;;;;;1.98;1.60;;;11.10;99.90;;;;;;5047190;28;20223;-63
2022/11/04 06:22:10;;;;;;;3.55;2.17;;;11.10;99.90;;;;;;5038405;28;20223;-62
2022/11/04 06:24:37;;;;;;;4.43;1.98;;;11.00;99.90;;;;;;5042097;28;20290;-63
2022/11/04 06:27:04;;;;;;;1.90;1.70;;;11.10;99.90;;;;;;5050034;28;20200;-63
2022/11/04 06:29:33;;;;;;;1.65;1.55;;;11.00;99.90;;;;;;5062657;28;20374;-63
2022/11/04 06:31:59;;;;;;;2.38;2.10;;;11.00;99.90;;;;;;5060065;28;20209;-63
2022/11/04 06:34:26;;;;;;;2.03;1.73;;;10.90;99.90;;;;;;5047598;28;20208;-63
2022/11/04 06:36:53;;;;;;;2.33;2.13;;;10.90;99.90;;;;;;5076482;28;20208;-63
2022/11/04 06:39:20;;;;;;;3.75;1.80;;;10.90;99.90;;;;;;5043544;28;20204;-63
2022/11/04 06:41:47;;;;;;;2.30;1.88;;;10.90;99.90;;;;;;5064043;28;20269;-62
2022/11/04 06:44:13;;;;;;;1.98;1.80;;;10.90;99.90;;;;;;5057054;28;20237;-62
2022/11/04 06:46:43;;;;;;;3.60;2.05;;;11.00;99.90;;;;;;5040402;28;20211;-62
2022/11/04 06:49:12;;;;;;;2.55;1.85;;;10.90;99.90;;;;;;5044195;28;20207;-63
2022/11/04 06:51:39;;;;;;;1.52;1.42;;;11.00;99.90;;;;;;5059068;28;20201;-63
2022/11/04 06:54:06;;;;;;;1.40;1.30;;;11.00;99.90;;;;;;5070495;28;20229;-64
2022/11/04 06:56:33;;;;;;;2.55;1.40;;;11.00;99.90;;;;;;5045155;28;20208;-62
2022/11/04 06:59:00;;;;;;;0.70;0.70;;;11.00;99.90;;;;;;5070416;28;20211;-62
2022/11/04 07:01:30;;;;;;;5.78;1.38;;;11.00;99.90;;;;;;5033211;28;20211;-62
2022/11/04 07:03:59;;;;;;;2.95;1.13;;;11.00;99.90;;;;;;5061457;28;20591;-62
2022/11/04 07:06:27;;;;;;;3.03;1.10;;;11.00;99.90;;;;;;5040043;28;20208;-64
2022/11/04 07:08:57;;;;;;;2.15;1.27;;;11.00;99.90;;;;;;5055917;28;20214;-62
2022/11/04 07:11:24;;;;;;;4.82;1.20;;;11.00;99.90;;;;;;5043642;28;20208;-63
2022/11/04 07:13:52;;;;;;;1.20;1.08;;;11.00;99.90;;;;;;5063514;28;20228;-63
2022/11/04 07:16:19;;;;;;;3.75;1.25;;;11.00;99.90;;;;;;5044952;28;20601;-63
2022/11/04 07:18:46;;;;;;;2.80;1.10;;;10.90;99.90;;;;;;5044720;28;20234;-62
2022/11/04 07:21:15;;;;;;;0.85;0.85;;;11.00;99.90;;;;;;5027623;28;20215;-62
2022/11/04 07:23:42;;;;;;;1.05;0.77;;;10.90;99.90;;;;;;5048720;28;20287;-62
2022/11/04 07:26:11;;;;;;;1.17;0.80;;;10.80;99.90;;;;;;5039613;28;20215;-62
2022/11/04 07:28:38;;;;;;;1.50;0.90;;;11.00;99.90;;;;;;5059253;28;20200;-62
2022/11/04 07:31:08;;;;;;;1.50;1.10;;;11.00;99.90;;;;;;5051594;28;20224;-62
2022/11/04 07:33:35;;;;;;;1.85;0.93;;;10.90;99.90;;;;;;5054778;28;20920;-62
2022/11/04 07:36:05;;;;;;;1.10;1.00;;;10.90;99.90;;;;;;5046390;28;20728;-62
2022/11/04 07:38:33;;;;;;;1.60;1.00;;;10.90;99.90;;;;;;5063310;28;20224;-62
2022/11/04 07:41:01;;;;;;;1.35;1.00;;;10.90;99.90;;;;;;5032519;28;21096;-62
2022/11/04 07:43:28;;;;;;;1.88;1.10;;;10.90;99.90;;;;;;5063142;28;20220;-62
2022/11/04 07:46:02;;;;;;;1.20;1.10;;;10.90;99.90;;;;;;5053295;28;20729;-62
2022/11/04 07:48:28;;;;;;;5.65;1.30;;;10.90;99.90;;;;;;5056971;28;20197;-62
2022/11/04 07:50:56;;;;;;;0.80;0.80;;;11.00;99.90;;;;;;5041690;28;20204;-62
2022/11/04 07:53:23;;;;;;;1.17;1.05;;;10.90;99.90;;;;;;5061327;28;20192;-62
2022/11/04 07:55:51;;;;;;;1.15;1.05;;;10.90;99.90;;;;;;5050905;28;20215;-62
2022/11/04 07:58:18;;;;;;;1.00;1.00;;;10.90;99.90;;;;;;5039882;28;20216;-62
2022/11/04 08:00:45;;;;;;;1.25;0.80;;;10.90;99.90;;;;;;5045053;28;20800;-62
2022/11/04 08:03:12;;;;;;;1.25;1.05;;;10.90;99.90;;;;;;5043181;28;20227;-63
2022/11/04 08:05:39;;;;;;;0.90;0.90;;;11.00;99.90;;;;;;5059647;28;20235;-63
2022/11/04 08:08:06;;;;;;;1.52;0.93;;;11.10;99.90;;;;;;5041561;28;20204;-62
2022/11/04 08:10:33;;;;;;;0.98;0.95;;;11.10;99.90;;;;;;5052179;28;20210;-63
2022/11/04 08:13:01;;;;;;;0.85;0.80;;;11.10;99.90;;;;;;5045041;28;20216;-62
2022/11/04 08:15:28;;;;;;;1.27;1.13;;;11.20;99.90;;;;;;5062783;28;20192;-62
2022/11/04 08:17:55;;;;;;;1.23;1.00;;;11.20;99.90;;;;;;5048834;28;20312;-62
2022/11/04 08:20:22;;;;;;;0.77;0.77;;;11.20;99.90;;;;;;5051234;28;20203;-62
2022/11/04 08:22:48;;;;;;;1.95;0.98;;;11.20;99.90;;;;;;5046513;28;20200;-62
2022/11/04 08:25:15;;;;;;;2.45;1.08;;;11.20;99.90;;;;;;5041259;28;20228;-62
2022/11/04 08:27:42;;;;;;;0.73;0.73;;;11.30;99.90;;;;;;5054098;28;20196;-62
2022/11/04 08:30:12;;;;;;;2.58;0.85;;;11.30;99.90;;;;;;5037128;28;20213;-62
2022/11/04 08:32:39;;;;;;;0.63;0.63;;;11.30;99.90;;;;;;5051423;28;20208;-62
2022/11/04 08:35:06;;;;;;;2.10;0.93;;;11.30;99.90;;;;;;5058241;28;20673;-63
2022/11/04 08:37:34;;;;;;;1.33;0.82;;;11.30;99.90;;;;;;5048476;28;20199;-63
2022/11/04 08:40:01;;;;;;;0.50;0.50;;;11.40;99.90;;;;;;5062491;28;20196;-63
2022/11/04 08:42:28;;;;;;;0.85;0.73;;;11.30;99.90;;;;;;5053789;28;20813;-63
2022/11/04 08:44:55;;;;;;;1.70;0.85;;;11.30;99.90;;;;;;5043434;28;20239;-63
2022/11/04 08:47:23;;;;;;;0.60;0.60;;;11.30;99.90;;;;;;5061956;28;20196;-62
2022/11/04 08:49:50;;;;;;;1.25;0.82;;;11.30;99.90;;;;;;5056378;28;20204;-62
2022/11/04 08:52:17;;;;;;;2.00;0.80;;;11.30;99.90;;;;;;5060448;28;20200;-62
2022/11/04 08:54:44;;;;;;;0.88;0.60;;;11.40;99.90;;;;;;5039638;28;20200;-65
2022/11/04 08:57:11;;;;;;;0.65;0.60;;;11.40;99.90;;;;;;5050218;28;20228;-62
2022/11/04 08:59:37;;;;;;;1.33;0.60;;;11.40;99.90;;;;;;5061209;28;20230;-62
2022/11/04 09:02:04;;;;;;;0.80;0.80;;;11.40;99.90;;;;;;5044972;28;21274;-62
2022/11/04 09:04:32;;;;;;;1.30;0.60;;;11.40;99.90;;;;;;5054976;28;20227;-62
2022/11/04 09:07:01;;;;;;;0.57;0.50;;;11.40;99.90;;;;;;5065069;28;20558;-62
2022/11/04 09:09:28;;;;;;;1.42;0.70;;;11.50;99.90;;;;;;5048340;28;20205;-62
2022/11/04 09:11:55;;;;;;;0.95;0.65;;;11.50;99.90;;;;;;5064414;28;20215;-62
2022/11/04 09:14:22;;;;;;;0.77;0.77;;;11.60;99.90;;;;;;5058421;28;20215;-61
2022/11/04 09:16:52;;;;;;;1.10;1.02;;;11.60;99.90;;;;;;5041972;28;20211;-62
2022/11/04 09:19:19;;;;;;;1.30;0.82;;;11.60;99.90;;;;;;5065986;28;20675;-62
2022/11/04 09:21:47;;;;;;;0.95;0.80;;;11.90;99.90;;;;;;5043600;28;20204;-62
2022/11/04 09:24:14;;;;;;;0.82;0.80;;;11.70;99.90;;;;;;5041124;28;20204;-62
2022/11/04 09:26:43;;;;;;;1.27;0.98;;;11.70;99.90;;;;;;5059923;28;20636;-63
2022/11/04 09:29:10;;;;;;;0.60;0.60;;;11.70;99.90;;;;;;5073217;28;20204;-63
2022/11/04 09:31:37;;;;;;;0.68;0.68;;;11.70;99.90;;;;;;5032495;28;20223;-63
2022/11/04 09:34:04;;;;;;;0.70;0.68;;;11.70;99.90;;;;;;5068029;28;20632;-62
2022/11/04 09:36:31;;;;;;;2.75;0.80;;;11.80;99.90;;;;;;5051016;28;20441;-63
2022/11/04 09:38:59;;;;;;;3.58;1.00;;;11.70;99.90;;;;;;5033397;28;20205;-62
2022/11/04 09:41:49;;;;;;;2.60;0.95;;;11.80;99.90;;;;;;5065863;28;20200;-63
2022/11/04 09:44:23;;;;;;;2.53;0.63;;;11.80;99.90;;;;;;5062782;28;20196;-63
2022/11/04 09:46:53;;;;;;;1.90;0.70;;;11.80;99.90;;;;;;5037647;28;21160;-63
2022/11/04 09:49:21;;;;;;;2.55;1.00;;;11.90;99.90;;;;;;5063304;28;20203;-63
2022/11/04 09:51:49;;;;;;;1.58;0.88;;;11.90;99.90;;;;;;5050399;28;20314;-63
2022/11/04 09:54:22;;;;;;;3.33;0.80;;;11.90;99.90;;;;;;5049595;28;20208;-62
2022/11/04 09:56:51;;;;;;;4.47;1.00;;;11.90;99.90;;;;;;5050809;28;21070;-62
2022/11/04 09:59:25;;;;;;;2.58;1.10;;;11.90;99.90;;;;;;5055213;28;20224;-63
2022/11/04 10:02:03;;;;;;;4.00;1.00;;;11.90;99.90;;;;;;5031496;28;20228;-63
2022/11/04 10:04:42;;;;;;;1.92;1.08;;;11.90;99.90;;;;;;5053196;28;20225;-62
2022/11/04 10:07:24;;;;;;;1.70;1.40;;;11.80;99.90;;;;;;5056543;28;20227;-62
2022/11/04 10:10:01;;;;;;;1.35;1.17;;;11.90;99.90;;;;;;5027989;22;20594;-63
2022/11/04 10:12:48;;;;;;;1.30;1.20;;;11.80;99.90;;;;;;5026476;28;20208;-63
2022/11/04 10:15:34;;;;;;;5.43;1.10;;;11.80;99.90;;;;;;5010948;28;20221;-62
2022/11/04 10:18:14;;;;;;;2.08;1.10;;;11.80;99.90;;;;;;4992577;28;20225;-62
2022/11/04 10:20:52;;;;;;;1.02;0.93;;;11.90;99.90;;;;;;4998843;28;20685;-62
2022/11/04 10:23:26;;;;;;;4.90;1.45;;;12.00;99.90;;;;;;5028575;28;20712;-63
2022/11/04 10:26:00;;;;;;;1.58;1.30;;;12.00;99.90;;;;;;5008755;28;20259;-63
2022/11/04 10:28:34;;;;;;;2.92;1.05;;;12.00;99.90;;;;;;5022146;28;20221;-62
2022/11/04 10:31:02;;;;;;;0.80;0.80;;;12.00;99.90;;;;;;5026897;28;20201;-63
2022/11/04 10:33:32;;;;;;;1.52;0.85;;;12.00;99.90;;;;;;4990594;28;20208;-62
2022/11/04 10:36:02;;;;;;;1.35;0.77;;;12.00;99.90;;;;;;5006737;28;20233;-62
2022/11/04 10:38:36;;;;;;;3.30;0.93;;;12.00;99.90;;;;;;5021357;28;20207;-62
2022/11/04 10:41:17;;;;;;;0.93;0.80;;;12.00;99.90;;;;;;5011259;28;20742;-62
2022/11/04 10:43:44;;;;;;;2.15;0.95;;;12.10;99.90;;;;;;5030841;28;20205;-61
2022/11/04 10:46:22;;;;;;;1.75;1.08;;;12.00;99.90;;;;;;5032936;28;20229;-62
2022/11/04 10:48:54;;;;;;;0.80;0.80;;;12.10;99.90;;;;;;5004899;28;20208;-62
2022/11/04 10:51:23;;;;;;;0.95;0.85;;;12.20;99.90;;;;;;5021858;28;20217;-62
2022/11/04 10:53:54;;;;;;;2.95;1.23;;;12.20;99.90;;;;;;5017219;28;20211;-63
2022/11/04 10:56:31;;;;;;;4.97;1.30;;;12.20;99.90;;;;;;5002745;28;20804;-63
2022/11/04 10:59:04;;;;;;;6.93;1.35;;;12.20;99.90;;;;;;5028052;28;20220;-63
2022/11/04 11:01:33;;;;;;;4.47;1.10;;;12.10;99.90;;;;;;5014581;28;20206;-62
2022/11/04 11:04:00;;;;;;;5.72;1.08;;;12.30;99.90;;;;;;5006184;28;20224;-63
2022/11/04 11:06:29;;;;;;;1.23;1.13;;;12.20;99.90;;;;;;5026496;28;20229;-63
2022/11/04 11:08:59;;;;;;;3.00;1.15;;;12.40;99.90;;;;;;5019783;28;20226;-62
2022/11/04 11:11:39;;;;;;;3.28;1.00;;;12.40;99.90;;;;;;5003854;28;20221;-63
2022/11/04 11:14:17;;;;;;;2.92;1.30;;;12.40;99.90;;;;;;5027691;28;20215;-63
2022/11/04 11:16:45;;;;;;;5.50;1.33;;;12.30;99.90;;;;;;5010119;28;20318;-62
2022/11/04 11:19:18;;;;;;;1.70;1.10;;;12.30;99.90;;;;;;5033921;28;20205;-62
2022/11/04 11:21:47;;;;;;;2.35;1.20;;;12.30;99.90;;;;;;5004062;28;20201;-62
2022/11/04 11:24:18;;;;;;;1.73;0.95;;;12.30;99.90;;;;;;5011255;28;20308;-62
2022/11/04 11:26:48;;;;;;;2.72;1.27;;;12.30;99.90;;;;;;5001749;22;21146;-62
2022/11/04 11:29:24;;;;;;;5.75;1.13;;;12.30;99.90;;;;;;5015024;28;20201;-62
2022/11/04 11:31:53;;;;;;;3.15;0.90;;;12.30;99.90;;;;;;5029253;28;20259;-62
2022/11/04 11:34:25;;;;;;;0.98;0.88;;;12.30;99.90;;;;;;5026986;28;20244;-62
2022/11/04 11:36:53;;;;;;;4.82;1.05;;;12.30;99.90;;;;;;5009032;28;20232;-62
2022/11/04 11:39:23;;;;;;;3.30;1.27;;;12.30;99.90;;;;;;5015681;28;20209;-62
2022/11/04 11:41:55;;;;;;;2.33;1.02;;;12.20;99.90;;;;;;5027910;28;20212;-62
2022/11/04 11:44:30;;;;;;;2.42;0.90;;;12.10;99.90;;;;;;5006861;28;20233;-62
2022/11/04 11:47:00;;;;;;;1.08;0.75;;;12.20;99.90;;;;;;5028211;28;20221;-62
2022/11/04 11:49:30;;;;;;;3.20;1.08;;;12.20;99.90;;;;;;5057789;22;20268;-62
2022/11/04 11:52:17;;;;;;;1.30;1.20;;;12.10;99.90;;;;;;5022189;28;20371;-62
2022/11/04 11:54:48;;;;;;;2.80;1.10;;;12.20;99.90;;;;;;5035199;28;20333;-62
2022/11/04 11:57:29;;;;;;;2.00;0.90;;;12.20;99.90;;;;;;5044037;28;20677;-62
2022/11/04 12:00:01;;;;;;;3.92;1.10;;;12.20;99.90;;;;;;5024301;28;20196;-62
2022/11/04 12:02:35;;;;;;;3.03;1.23;;;12.40;99.90;;;;;;5040359;28;20218;-62
2022/11/04 12:05:02;;;;;;;1.05;0.80;;;12.40;99.90;;;;;;5043308;28;20221;-62
2022/11/04 12:07:36;;;;;;;1.85;1.05;;;12.40;99.90;;;;;;5026634;28;20211;-63
2022/11/04 12:10:13;;;;;;;1.70;1.00;;;12.50;99.90;;;;;;5035906;28;20204;-63
2022/11/04 12:12:56;;;;;;;3.17;1.38;;;12.50;99.90;;;;;;5046376;28;20733;-62
2022/11/04 12:15:36;;;;;;;2.58;1.35;;;12.50;99.90;;;;;;5026032;28;20808;-62
2022/11/04 12:18:24;;;;;;;1.85;1.13;;;12.50;99.90;;;;;;5048558;28;20228;-62
2022/11/04 12:20:59;;;;;;;3.22;1.10;;;12.50;99.90;;;;;;5046491;28;20220;-62
2022/11/04 12:23:31;;;;;;;1.00;1.00;;;12.50;99.90;;;;;;5025426;28;20200;-63
2022/11/04 12:26:12;;;;;;;2.33;1.27;;;12.50;99.90;;;;;;5034229;28;20247;-62
2022/11/04 12:28:53;;;;;;;2.90;1.23;;;12.50;99.90;;;;;;5046152;28;20227;-62
2022/11/04 12:31:32;;;;;;;1.00;0.90;;;12.60;99.90;;;;;;5023464;28;20200;-62
2022/11/04 12:34:08;;;;;;;3.58;1.20;;;12.60;99.90;;;;;;5046530;28;20203;-62
2022/11/04 12:36:46;;;;;;;2.95;1.50;;;12.50;99.90;;;;;;5030031;28;20685;-62
2022/11/04 12:39:27;;;;;;;3.85;1.50;;;12.60;99.90;;;;;;5048400;28;20207;-63
2022/11/04 12:42:04;;;;;;;2.95;1.52;;;12.60;99.90;;;;;;5030622;28;20204;-63
2022/11/04 12:44:41;;;;;;;3.28;1.50;;;12.60;99.90;;;;;;5037080;28;20196;-63
2022/11/04 12:47:23;;;;;;;1.13;1.02;;;12.80;99.90;;;;;;5052339;28;20263;-62
2022/11/04 12:50:06;;;;;;;4.50;1.23;;;12.80;99.90;;;;;;4996416;28;20243;-62
2022/11/04 12:53:05;;;;;;;3.30;1.23;;;12.90;99.90;;;;;;5022161;28;20224;-62
2022/11/04 12:55:40;;;;;;;4.35;1.38;;;12.90;99.90;;;;;;5020643;28;20236;-63
2022/11/04 12:58:19;;;;;;;2.47;1.10;;;12.80;99.90;;;;;;5039854;28;20211;-62
2022/11/04 13:00:53;;;;;;;1.65;1.08;;;12.90;99.90;;;;;;5011268;28;20196;-63
2022/11/04 13:03:29;;;;;;;1.45;1.02;;;12.80;99.90;;;;;;5028686;28;20859;-62
2022/11/04 13:06:02;;;;;;;5.95;1.33;;;12.80;99.90;;;;;;5029978;28;20597;-62
2022/11/04 13:08:34;;;;;;;3.00;1.23;;;12.70;99.90;;;;;;5010334;28;20208;-63
2022/11/04 13:11:21;;;;;;;4.07;1.10;;;12.70;99.90;;;;;;5022329;28;20205;-62
2022/11/04 13:13:52;;;;;;;4.13;1.10;;;12.70;99.90;;;;;;5026957;28;20228;-62
2022/11/04 13:16:21;;;;;;;5.18;1.50;;;12.80;99.90;;;;;;5020172;28;20201;-62
2022/11/04 13:18:50;;;;;;;1.33;0.98;;;12.80;99.90;;;;;;5038399;28;20196;-62
2022/11/04 13:21:21;;;;;;;5.88;1.20;;;12.90;99.90;;;;;;5024896;28;20224;-62
2022/11/04 13:23:56;;;;;;;5.47;1.20;;;12.90;99.90;;;;;;5002904;28;20209;-62
2022/11/04 13:26:23;;;;;;;3.30;1.10;;;12.60;99.90;;;;;;5007411;28;21174;-62
2022/11/04 13:28:58;;;;;;;2.85;0.90;;;12.60;99.90;;;;;;5017230;28;20220;-62
2022/11/04 13:31:35;;;;;;;5.15;0.80;;;12.50;99.90;;;;;;4989737;28;20225;-62
2022/11/04 13:34:10;;;;;;;3.10;0.65;;;12.40;99.90;;;;;;5024224;28;20619;-63
2022/11/04 13:36:45;;;;;;;4.22;0.82;;;12.40;99.90;;;;;;5021446;28;20634;-62
2022/11/04 13:39:20;;;;;;;2.47;1.02;;;12.40;99.90;;;;;;4999622;28;20258;-62
2022/11/04 13:42:06;;;;;;;3.72;1.30;;;12.40;99.90;;;;;;5022878;28;21004;-62